Escanaba, MI (49829)

4:48 AM EDT on September 03, 2015 (GMT -0400)
MesoWest | | Change Station
CLOSE
Current Station
Personal Weather Station
Location: Wells, MI
Elevation: 648 ft
Nearby Weather Stations

Elev 648 ft 45.79 °N, 87.08 °W | Updated 38 minutes ago

Mostly Cloudy
Mostly Cloudy
66 °F
Feels Like 66 °F
N
4
Wind Variable Wind from NE
Gusts 9.0 mph

Today
High -- | Low -- °F
--% Chance of Precip.
Yesterday
High -- | Low -- °F
Precip. -- in
7:11 AM 8:23 PM
Waning Gibbous, 72% visible
Pressure 29.90 in
Visibility 10.0 miles
Clouds Scattered Clouds 500 ft
Mostly Cloudy 6000 ft
Dew Point 65 °F
Humidity 94%
Rainfall in
Snow Depth Not available.
UV 0 out of 12
Pollen 9.60 out of 12
Air Quality Not available.
Flu Activity Not available.
METAR KESC 030835Z AUTO 06005KT 10SM SCT005 BKN060 19/19 A2990 RMK AO1
Pressure 29.90 in
Visibility 10.0 miles
Clouds Scattered Clouds 500 ft
Mostly Cloudy 6000 ft
Dew Point 65 °F
Humidity 94%
Rainfall in
Snow Depth Not available.
UV 0 out of 12
Pollen 9.60 out of 12
Air Quality Not available.
Flu Activity Not available.
METAR KESC 030835Z AUTO 06005KT 10SM SCT005 BKN060 19/19 A2990 RMK AO1

10-Day Weather Forecast

×

Almanac

Astronomy

Sep. 03, 2015 Rise Set
Actual Time
Civil Twilight
Nautical Twilight
Astronomical Twilight
Moon
Length of Visible Light
Length of Day
Tomorrow will be .
, % of the Moon is Illuminated

Today's Extremes

State Highs State Lows

Community

WunderPhotos

Upload Photos

1,851,919 photos uploaded!

WunderBlogs® & News

Nearby

Air Quality

  Air Quality AQ Index Pollutant
Not available.

Snow Depth

Station Depth Elevation

Earthquake Activity

City Distance Mag. Time & Date
Minimum magnitude displayed is 2.5.

Coastal Water Temperatures

Place Temperature

Stations

Nearby Weather Stations

Station Location Temp. Windchill Dew Point Humidity Wind Precip. Elev Updated Type